Time;durP1;ratioP1;P1;durP2;ratioP2;P2;SDS_P1;SDS_P2;PMS_P1;PMS_P2;Temp;Humidity;BMP_temperature;BMP_pressure;BME280_temperature;BME280_humidity;BME280_pressure;Samples;Min_cycle;Max_cycle;Signal;HPM_P1;HPM_P2
2023/12/22 00:00:29;;;;;;;1.10;1.10;;;16.90;66.70;;;;;;4942946;28;45699;-72
2023/12/22 00:02:57;;;;;;;0.90;0.90;;;17.00;66.60;;;;;;4939589;28;43470;-72
2023/12/22 00:05:25;;;;;;;0.90;0.90;;;17.00;66.70;;;;;;4964951;28;43420;-69
2023/12/22 00:07:53;;;;;;;1.10;1.10;;;16.90;66.70;;;;;;4959977;28;43408;-69
2023/12/22 00:10:22;;;;;;;1.10;1.10;;;16.90;66.70;;;;;;4969356;28;43608;-69
2023/12/22 00:12:51;;;;;;;1.10;1.10;;;16.90;66.70;;;;;;4968844;28;43461;-69
2023/12/22 00:15:19;;;;;;;1.00;1.00;;;16.90;67.00;;;;;;4961514;28;43453;-69
2023/12/22 00:17:47;;;;;;;1.00;0.90;;;16.90;67.10;;;;;;4968569;28;43353;-70
2023/12/22 00:20:16;;;;;;;0.90;0.90;;;16.80;67.20;;;;;;4968505;28;43857;-70
2023/12/22 00:22:44;;;;;;;0.90;0.90;;;16.80;67.20;;;;;;4961672;28;44638;-69
2023/12/22 00:25:12;;;;;;;1.03;0.90;;;16.70;67.20;;;;;;4962527;28;43438;-69
2023/12/22 00:27:41;;;;;;;1.13;1.13;;;16.80;67.20;;;;;;4962477;28;43424;-69
2023/12/22 00:30:12;;;;;;;1.10;1.10;;;16.70;67.20;;;;;;4968072;28;43706;-69
2023/12/22 00:32:40;;;;;;;0.90;0.90;;;16.70;67.30;;;;;;4966294;28;43430;-69
2023/12/22 00:35:08;;;;;;;0.93;0.93;;;16.70;67.40;;;;;;4963595;28;43419;-69
2023/12/22 00:37:36;;;;;;;1.03;1.03;;;16.70;67.40;;;;;;4969454;28;43430;-69
2023/12/22 00:40:07;;;;;;;1.10;1.10;;;16.70;67.40;;;;;;4965330;28;43955;-70
2023/12/22 00:42:35;;;;;;;1.03;1.03;;;16.70;67.30;;;;;;4969517;28;43373;-70
2023/12/22 00:45:03;;;;;;;1.10;1.10;;;16.70;67.40;;;;;;4964989;28;43392;-69
2023/12/22 00:47:34;;;;;;;0.83;0.83;;;16.70;67.40;;;;;;4963727;28;43405;-69
2023/12/22 00:50:04;;;;;;;1.03;1.03;;;16.70;67.40;;;;;;4965430;28;43617;-69
2023/12/22 00:52:32;;;;;;;0.80;0.80;;;16.70;67.50;;;;;;4971867;28;43415;-70
2023/12/22 00:55:00;;;;;;;0.97;0.97;;;16.70;67.50;;;;;;4967943;28;43453;-69
2023/12/22 00:57:30;;;;;;;1.00;1.00;;;16.70;67.40;;;;;;4973700;28;43458;-70
2023/12/22 00:59:58;;;;;;;1.00;1.00;;;16.70;67.20;;;;;;4965644;28;45682;-69
2023/12/22 01:02:26;;;;;;;1.03;1.03;;;16.80;67.10;;;;;;4969262;28;43387;-69
2023/12/22 01:04:55;;;;;;;1.17;1.17;;;16.90;66.70;;;;;;4971597;28;43444;-70
2023/12/22 01:07:23;;;;;;;1.20;1.20;;;17.00;66.50;;;;;;4970889;28;43439;-69
2023/12/22 01:09:52;;;;;;;1.10;1.10;;;17.00;66.60;;;;;;4968305;28;43569;-69
2023/12/22 01:12:20;;;;;;;0.97;0.97;;;16.90;66.70;;;;;;4968664;28;43399;-69
2023/12/22 01:14:51;;;;;;;1.00;1.00;;;16.90;66.60;;;;;;4966132;28;43408;-70
2023/12/22 01:17:19;;;;;;;1.07;1.07;;;16.90;66.70;;;;;;4973098;28;43447;-69
2023/12/22 01:19:47;;;;;;;1.00;1.00;;;16.90;66.80;;;;;;4967288;28;43921;-70
2023/12/22 01:22:17;;;;;;;0.90;0.90;;;16.80;66.90;;;;;;4966214;28;43402;-70
2023/12/22 01:24:45;;;;;;;0.87;0.87;;;16.80;67.00;;;;;;4967429;28;43370;-69
2023/12/22 01:27:13;;;;;;;0.97;0.93;;;16.80;67.10;;;;;;4963952;28;43487;-70
2023/12/22 01:29:41;;;;;;;1.03;1.03;;;16.70;67.00;;;;;;4967113;28;43613;-69
2023/12/22 01:32:09;;;;;;;0.90;0.90;;;16.80;67.10;;;;;;4969064;28;43449;-69
2023/12/22 01:34:37;;;;;;;0.90;0.90;;;16.70;67.10;;;;;;4963003;28;44411;-69
2023/12/22 01:37:05;;;;;;;0.80;0.80;;;16.70;67.20;;;;;;4968389;28;43419;-69
2023/12/22 01:39:34;;;;;;;0.83;0.83;;;16.70;67.20;;;;;;4964738;28;43608;-70
2023/12/22 01:42:03;;;;;;;1.00;1.00;;;16.70;67.30;;;;;;4964015;28;43410;-70
2023/12/22 01:44:30;;;;;;;1.10;1.10;;;16.70;67.30;;;;;;4973025;28;43634;-69
2023/12/22 01:46:58;;;;;;;1.07;1.07;;;16.70;67.20;;;;;;4969877;28;43446;-70
2023/12/22 01:49:26;;;;;;;1.10;1.10;;;16.70;66.90;;;;;;4961898;28;43892;-69
2023/12/22 01:51:55;;;;;;;1.10;1.10;;;16.80;66.70;;;;;;4970674;28;44984;-69
2023/12/22 01:54:23;;;;;;;1.07;1.07;;;16.90;66.70;;;;;;4961731;28;43467;-70
2023/12/22 01:56:52;;;;;;;0.90;0.90;;;16.80;66.80;;;;;;4961409;28;44094;-70
2023/12/22 01:59:20;;;;;;;0.97;0.97;;;16.80;66.90;;;;;;4961009;28;43608;-69
2023/12/22 02:01:48;;;;;;;1.00;1.00;;;16.80;66.90;;;;;;4969557;28;43455;-69
2023/12/22 02:04:16;;;;;;;1.07;1.07;;;16.80;66.90;;;;;;4966933;28;43446;-69
2023/12/22 02:06:44;;;;;;;0.83;0.83;;;16.80;66.90;;;;;;4966647;28;43459;-70
2023/12/22 02:09:12;;;;;;;1.03;1.03;;;16.80;67.10;;;;;;4970734;28;43625;-70
2023/12/22 02:11:40;;;;;;;0.97;0.97;;;16.80;67.20;;;;;;4967098;28;43478;-69
2023/12/22 02:14:09;;;;;;;1.10;1.10;;;16.70;67.10;;;;;;4970769;28;43386;-70
2023/12/22 02:16:40;;;;;;;0.90;0.90;;;16.70;67.20;;;;;;4967322;28;43832;-69
2023/12/22 02:19:14;;;;;;;0.80;0.80;;;16.70;67.00;;;;;;4969768;28;43609;-69
2023/12/22 02:22:00;;;;;;;1.10;1.10;;;16.70;67.10;;;;;;4966288;28;44667;-70
2023/12/22 02:24:33;;;;;;;1.00;1.00;;;16.70;67.20;;;;;;4962866;28;43360;-70
2023/12/22 02:27:04;;;;;;;1.13;1.13;;;16.70;67.30;;;;;;4965416;28;43383;-69
2023/12/22 02:29:34;;;;;;;1.00;1.00;;;16.70;67.30;;;;;;4968928;28;43614;-69
2023/12/22 02:32:03;;;;;;;1.00;1.00;;;16.70;67.30;;;;;;4963295;28;43425;-69
2023/12/22 02:34:31;;;;;;;1.00;1.00;;;16.70;67.90;;;;;;4969574;28;43476;-69
2023/12/22 02:36:59;;;;;;;1.00;1.00;;;16.70;67.00;;;;;;4965824;28;43484;-69
2023/12/22 02:39:27;;;;;;;1.17;1.17;;;16.80;66.80;;;;;;4967128;28;44148;-69
2023/12/22 02:41:57;;;;;;;1.63;1.10;;;16.90;66.50;;;;;;4966318;28;43402;-69
2023/12/22 02:44:26;;;;;;;0.90;0.90;;;16.90;66.30;;;;;;4967349;28;43948;-69
2023/12/22 02:46:54;;;;;;;0.97;0.97;;;16.90;66.40;;;;;;4967289;28;43324;-69
2023/12/22 02:49:22;;;;;;;1.03;1.03;;;16.90;66.50;;;;;;4961270;28;43750;-69
2023/12/22 02:51:50;;;;;;;1.03;1.03;;;16.90;66.60;;;;;;4966828;28;43386;-69
2023/12/22 02:54:20;;;;;;;0.80;0.80;;;16.90;66.50;;;;;;4971247;28;43407;-69
2023/12/22 02:56:48;;;;;;;1.03;1.03;;;16.80;66.60;;;;;;4966334;28;43360;-70
2023/12/22 02:59:17;;;;;;;1.03;1.03;;;16.80;66.70;;;;;;4962745;28;43605;-70
2023/12/22 03:01:46;;;;;;;0.90;0.90;;;16.80;66.90;;;;;;4970742;28;44771;-70
2023/12/22 03:04:14;;;;;;;0.80;0.80;;;16.80;66.90;;;;;;4965682;28;43558;-70
2023/12/22 03:06:42;;;;;;;0.90;0.90;;;16.70;66.90;;;;;;4967704;28;43389;-69
2023/12/22 03:09:10;;;;;;;1.23;1.13;;;16.70;66.80;;;;;;4968016;28;43699;-69
2023/12/22 03:11:38;;;;;;;0.90;0.90;;;16.80;67.00;;;;;;4963318;28;43406;-69
2023/12/22 03:14:06;;;;;;;0.90;0.90;;;16.80;67.10;;;;;;4969725;28;43452;-70
2023/12/22 03:16:35;;;;;;;0.93;0.93;;;16.70;67.00;;;;;;4964683;28;43406;-70
2023/12/22 03:19:04;;;;;;;1.30;1.30;;;16.70;67.10;;;;;;4968414;28;43848;-69
2023/12/22 03:21:32;;;;;;;1.00;1.00;;;16.70;67.10;;;;;;4967034;28;43389;-69
2023/12/22 03:24:00;;;;;;;1.10;1.10;;;16.70;67.70;;;;;;4966433;28;43435;-69
2023/12/22 03:26:28;;;;;;;1.20;1.20;;;16.70;67.00;;;;;;4967831;28;43434;-69
2023/12/22 03:28:56;;;;;;;1.20;1.20;;;16.70;67.20;;;;;;4966546;28;43552;-69
2023/12/22 03:31:24;;;;;;;0.93;0.93;;;16.70;67.20;;;;;;4969917;28;43417;-69
2023/12/22 03:33:54;;;;;;;0.93;0.93;;;16.70;67.20;;;;;;4964489;28;43359;-70
2023/12/22 03:36:22;;;;;;;1.40;1.30;;;16.70;67.30;;;;;;4965911;28;43403;-69
2023/12/22 03:38:50;;;;;;;0.80;0.80;;;16.70;67.20;;;;;;4968492;28;43617;-70
2023/12/22 03:41:18;;;;;;;0.97;0.97;;;16.70;67.00;;;;;;4968723;28;43494;-70
2023/12/22 03:43:46;;;;;;;1.10;1.10;;;16.70;66.80;;;;;;4965836;28;43448;-69
2023/12/22 03:46:14;;;;;;;1.00;1.00;;;16.90;66.60;;;;;;4959715;28;43413;-70
2023/12/22 03:48:42;;;;;;;1.00;1.00;;;16.90;66.10;;;;;;4965680;28;43856;-70
2023/12/22 03:51:13;;;;;;;0.90;0.90;;;16.90;66.20;;;;;;4964777;28;43474;-69
2023/12/22 03:53:41;;;;;;;1.30;1.10;;;16.90;66.40;;;;;;4964312;28;43437;-69
2023/12/22 03:56:09;;;;;;;1.10;1.10;;;16.90;66.40;;;;;;4968067;28;43743;-69
2023/12/22 03:58:37;;;;;;;1.00;1.00;;;16.90;66.40;;;;;;4968639;28;43553;-70
2023/12/22 04:01:07;;;;;;;0.93;0.93;;;16.90;66.50;;;;;;4967748;28;43451;-69
2023/12/22 04:03:35;;;;;;;1.30;1.20;;;16.80;66.60;;;;;;4966676;28;43438;-69
2023/12/22 04:06:04;;;;;;;1.07;1.07;;;16.80;66.80;;;;;;4964679;28;43589;-69
2023/12/22 04:08:33;;;;;;;1.00;1.00;;;16.80;66.90;;;;;;4967986;28;43820;-70
2023/12/22 04:11:01;;;;;;;1.00;1.00;;;16.70;66.90;;;;;;4966546;28;43400;-70
2023/12/22 04:13:29;;;;;;;1.10;1.10;;;16.70;66.80;;;;;;4964286;28;43434;-69
2023/12/22 04:15:57;;;;;;;1.00;1.00;;;16.70;66.90;;;;;;4963886;28;43450;-69
2023/12/22 04:18:25;;;;;;;1.00;1.00;;;16.80;67.10;;;;;;4961729;28;43667;-69
2023/12/22 04:20:55;;;;;;;0.93;0.93;;;16.70;67.00;;;;;;4967773;28;43997;-69
2023/12/22 04:23:23;;;;;;;0.90;0.90;;;16.70;67.10;;;;;;4962256;28;43409;-69
2023/12/22 04:25:52;;;;;;;1.20;1.20;;;16.70;67.20;;;;;;4969203;28;43386;-69
2023/12/22 04:28:21;;;;;;;1.00;1.00;;;16.70;67.20;;;;;;4969015;28;45677;-69
2023/12/22 04:30:49;;;;;;;1.23;1.20;;;16.70;67.00;;;;;;4966406;28;43756;-69
2023/12/22 04:33:17;;;;;;;1.10;1.10;;;16.70;66.80;;;;;;4965997;28;43389;-69
2023/12/22 04:35:45;;;;;;;1.07;1.07;;;16.80;66.60;;;;;;4968530;28;43507;-69
2023/12/22 04:38:13;;;;;;;1.17;1.17;;;16.90;66.50;;;;;;4959804;28;45972;-69
2023/12/22 04:40:41;;;;;;;0.90;0.90;;;16.90;66.40;;;;;;4963346;28;44696;-70
2023/12/22 04:43:10;;;;;;;0.90;0.90;;;16.90;66.60;;;;;;4966813;28;43554;-72
2023/12/22 04:45:38;;;;;;;1.43;1.43;;;16.90;67.40;;;;;;4944067;28;43522;-71
2023/12/22 04:48:07;;;;;;;1.33;1.10;;;16.80;66.50;;;;;;4934745;28;44083;-71
2023/12/22 04:50:35;;;;;;;1.13;1.13;;;16.80;66.60;;;;;;4939808;28;43426;-71
2023/12/22 04:53:04;;;;;;;1.00;1.00;;;16.80;66.70;;;;;;4942686;28;43374;-71
2023/12/22 04:55:32;;;;;;;1.07;1.07;;;16.80;66.80;;;;;;4933532;28;43928;-71
2023/12/22 04:58:00;;;;;;;0.80;0.80;;;16.80;66.90;;;;;;4942573;28;43589;-71
2023/12/22 05:00:30;;;;;;;1.10;1.10;;;16.80;67.00;;;;;;4943929;28;43373;-71
2023/12/22 05:02:58;;;;;;;1.10;1.10;;;16.80;66.90;;;;;;4943552;28;44179;-71
2023/12/22 05:05:26;;;;;;;0.93;0.93;;;16.80;66.80;;;;;;4941936;28;43439;-71
2023/12/22 05:07:54;;;;;;;0.93;0.93;;;16.80;66.90;;;;;;4939241;28;44356;-78
2023/12/22 05:10:22;;;;;;;1.10;1.10;;;16.80;66.90;;;;;;4943153;28;43473;-72
2023/12/22 05:12:50;;;;;;;1.70;1.53;;;16.70;66.90;;;;;;4938206;28;43920;-71
2023/12/22 05:15:18;;;;;;;4.60;2.30;;;16.80;67.10;;;;;;4941890;28;43723;-71
2023/12/22 05:17:47;;;;;;;9.80;2.60;;;16.70;67.00;;;;;;4938190;28;43838;-71
2023/12/22 05:20:16;;;;;;;7.80;3.00;;;16.80;66.80;;;;;;4941554;28;43853;-71
2023/12/22 05:22:44;;;;;;;2.27;2.17;;;16.80;66.90;;;;;;4943230;28;44156;-71
2023/12/22 05:25:14;;;;;;;2.27;2.03;;;16.80;67.10;;;;;;4935864;28;43461;-72
2023/12/22 05:27:43;;;;;;;3.97;2.30;;;16.80;67.10;;;;;;4940603;28;43609;-71
2023/12/22 05:30:12;;;;;;;2.33;2.10;;;16.80;67.20;;;;;;4942916;28;43970;-71
2023/12/22 05:32:40;;;;;;;6.90;3.63;;;16.70;67.10;;;;;;4944099;28;44007;-71
2023/12/22 05:35:11;;;;;;;7.30;3.63;;;16.70;66.80;;;;;;4940977;28;43458;-72
2023/12/22 05:37:39;;;;;;;5.40;3.20;;;16.70;67.40;;;;;;4946371;28;43879;-71
2023/12/22 05:40:09;;;;;;;7.87;3.90;;;16.80;66.50;;;;;;4945353;28;43944;-71
2023/12/22 05:42:37;;;;;;;12.83;4.13;;;16.90;66.20;;;;;;4938774;28;43901;-70
2023/12/22 05:45:06;;;;;;;8.57;3.57;;;17.00;66.10;;;;;;4941304;28;43946;-71
2023/12/22 05:47:34;;;;;;;7.00;3.47;;;17.00;66.20;;;;;;4943515;28;43951;-71
2023/12/22 05:50:02;;;;;;;8.73;3.63;;;16.90;66.30;;;;;;4947379;28;43541;-71
2023/12/22 05:52:32;;;;;;;8.77;3.50;;;16.90;66.20;;;;;;4944621;28;43367;-71
2023/12/22 05:55:00;;;;;;;7.23;3.47;;;16.90;66.10;;;;;;4964270;28;43462;-69
2023/12/22 05:57:28;;;;;;;4.73;3.40;;;16.90;66.40;;;;;;4966478;28;43693;-70
2023/12/22 05:59:56;;;;;;;8.27;4.07;;;16.90;66.60;;;;;;4967106;28;43440;-69
2023/12/22 06:02:24;;;;;;;4.30;3.00;;;16.90;66.70;;;;;;4967646;28;43370;-69
2023/12/22 06:04:52;;;;;;;9.57;3.53;;;16.80;66.70;;;;;;4965260;28;43617;-69
2023/12/22 06:07:20;;;;;;;7.73;4.10;;;16.80;66.80;;;;;;4969072;28;43601;-70
2023/12/22 06:09:50;;;;;;;10.70;4.07;;;16.80;66.60;;;;;;4970060;28;43433;-69
2023/12/22 06:12:18;;;;;;;7.03;3.83;;;16.80;66.70;;;;;;4966385;28;43351;-69
2023/12/22 06:14:46;;;;;;;8.93;4.10;;;16.80;66.90;;;;;;4970477;28;43454;-70
2023/12/22 06:17:14;;;;;;;4.90;3.40;;;16.80;66.90;;;;;;4971334;28;46329;-70
2023/12/22 06:19:42;;;;;;;4.53;3.60;;;16.80;66.90;;;;;;4962333;28;43417;-69
2023/12/22 06:22:10;;;;;;;9.50;4.40;;;16.80;67.00;;;;;;4966266;28;43442;-70
2023/12/22 06:24:38;;;;;;;6.67;3.60;;;16.80;66.90;;;;;;4968914;28;43422;-69
2023/12/22 06:27:07;;;;;;;6.00;3.93;;;16.80;66.80;;;;;;4965857;28;43898;-69
2023/12/22 06:29:35;;;;;;;6.77;3.77;;;16.90;66.60;;;;;;4967099;28;43408;-69
2023/12/22 06:32:05;;;;;;;7.90;3.97;;;17.00;67.00;;;;;;4961071;28;43390;-69
2023/12/22 06:34:40;;;;;;;7.83;3.80;;;17.00;66.20;;;;;;4968770;28;43445;-69
2023/12/22 06:37:08;;;;;;;10.07;4.63;;;17.00;66.30;;;;;;4964195;28;43619;-70
2023/12/22 06:39:41;;;;;;;7.77;4.30;;;17.00;66.40;;;;;;4966850;28;43366;-69
2023/12/22 06:42:12;;;;;;;9.90;4.23;;;16.90;66.30;;;;;;4964747;28;43625;-69
2023/12/22 06:44:42;;;;;;;5.47;3.50;;;16.90;66.40;;;;;;4961886;28;43546;-70
2023/12/22 06:47:10;;;;;;;6.17;3.80;;;16.90;66.50;;;;;;4965164;28;43593;-70
2023/12/22 06:49:38;;;;;;;4.37;3.40;;;16.90;66.60;;;;;;4963998;28;43378;-69
2023/12/22 06:52:06;;;;;;;5.43;3.67;;;16.90;66.70;;;;;;4969072;28;43351;-70
2023/12/22 06:54:35;;;;;;;7.30;4.37;;;16.90;66.80;;;;;;4961274;28;43441;-70
2023/12/22 06:57:03;;;;;;;8.73;4.30;;;16.80;66.70;;;;;;4958160;28;45660;-70
2023/12/22 06:59:39;;;;;;;6.83;3.93;;;16.80;66.60;;;;;;4961949;28;43391;-69
2023/12/22 07:02:09;;;;;;;4.73;3.53;;;16.80;66.80;;;;;;4962875;28;43449;-70
2023/12/22 07:05:36;;;;;;;7.13;3.70;;;16.80;66.90;;;;;;4946632;28;43445;-71
2023/12/22 07:08:06;;;;;;;5.30;3.43;;;16.80;67.00;;;;;;4939119;28;43843;-70
2023/12/22 07:10:34;;;;;;;7.90;3.77;;;16.80;67.10;;;;;;4931462;28;43848;-71
2023/12/22 07:13:02;;;;;;;6.13;3.97;;;16.70;66.90;;;;;;4936831;28;43774;-70
2023/12/22 07:15:31;;;;;;;6.17;3.87;;;16.80;67.00;;;;;;4935696;28;43426;-71
2023/12/22 07:18:00;;;;;;;6.27;3.93;;;16.80;66.60;;;;;;4931039;28;43868;-71
2023/12/22 07:20:28;;;;;;;7.57;3.90;;;17.00;66.40;;;;;;4940990;28;43422;-70
2023/12/22 07:22:56;;;;;;;4.13;3.30;;;17.00;66.40;;;;;;4936291;28;43405;-71
2023/12/22 07:25:24;;;;;;;5.70;3.87;;;16.90;66.40;;;;;;4936359;28;43483;-71
2023/12/22 07:27:53;;;;;;;7.07;4.13;;;16.90;66.60;;;;;;4942329;28;45753;-71
2023/12/22 07:30:35;;;;;;;7.07;4.53;;;16.90;66.60;;;;;;4939962;28;43908;-71
2023/12/22 07:33:35;;;;;;;4.60;3.77;;;16.90;66.60;;;;;;4935221;28;43438;-70
2023/12/22 07:36:12;;;;;;;4.63;3.40;;;16.90;66.70;;;;;;4942072;28;43463;-72
2023/12/22 07:38:40;;;;;;;4.93;4.10;;;16.80;66.70;;;;;;4938758;28;43962;-72
2023/12/22 07:41:09;;;;;;;6.23;3.90;;;16.80;66.90;;;;;;4941039;28;43437;-72
2023/12/22 07:43:39;;;;;;;5.53;3.50;;;16.80;67.00;;;;;;4939236;28;43514;-72
2023/12/22 07:50:15;;;;;;;4.80;3.70;;;16.80;66.90;;;;;;4938832;28;43591;-71
2023/12/22 07:52:44;;;;;;;4.90;3.80;;;16.80;67.00;;;;;;4941016;28;43855;-71
2023/12/22 07:55:13;;;;;;;4.60;3.43;;;16.80;67.10;;;;;;4942544;28;43441;-71
2023/12/22 07:57:41;;;;;;;4.53;3.50;;;16.80;67.10;;;;;;4938750;28;43351;-71
2023/12/22 08:00:10;;;;;;;6.57;4.10;;;16.80;67.10;;;;;;4934748;28;46034;-71
2023/12/22 08:02:41;;;;;;;5.40;3.63;;;16.80;67.10;;;;;;4943876;28;43537;-71
2023/12/22 08:05:09;;;;;;;6.50;3.87;;;16.80;66.90;;;;;;4940775;28;43541;-71
2023/12/22 08:07:38;;;;;;;4.30;3.53;;;16.90;66.60;;;;;;4942579;28;43428;-71
2023/12/22 08:10:07;;;;;;;7.43;4.00;;;16.90;66.40;;;;;;4943011;28;43947;-71
2023/12/22 08:12:35;;;;;;;5.60;3.47;;;16.90;66.40;;;;;;4937365;28;43489;-71
2023/12/22 08:15:03;;;;;;;6.87;3.80;;;16.90;66.60;;;;;;4958309;28;44124;-70
2023/12/22 08:17:32;;;;;;;5.97;4.00;;;16.90;66.60;;;;;;4964621;28;43396;-69
2023/12/22 08:20:00;;;;;;;5.30;3.77;;;16.90;66.60;;;;;;4960626;28;43783;-69
2023/12/22 08:22:40;;;;;;;3.57;3.27;;;16.90;66.70;;;;;;4964181;28;43430;-69
2023/12/22 08:25:13;;;;;;;4.63;3.43;;;16.90;66.80;;;;;;4963077;28;43446;-69
2023/12/22 08:27:41;;;;;;;4.00;3.20;;;16.80;66.80;;;;;;4967783;28;43536;-68
2023/12/22 08:30:10;;;;;;;4.90;3.40;;;16.80;66.90;;;;;;4964563;28;43926;-69
2023/12/22 08:32:38;;;;;;;5.40;3.93;;;16.80;66.90;;;;;;4966139;28;44764;-69
2023/12/22 08:35:07;;;;;;;4.80;3.70;;;16.80;66.80;;;;;;4968957;28;43369;-69
2023/12/22 08:37:37;;;;;;;3.43;3.13;;;16.80;66.90;;;;;;4964742;28;43411;-69
2023/12/22 08:40:08;;;;;;;6.03;4.10;;;16.80;67.00;;;;;;4966434;28;43667;-69
2023/12/22 08:42:36;;;;;;;5.30;3.60;;;16.80;67.10;;;;;;4963475;28;43381;-70
2023/12/22 08:45:05;;;;;;;5.00;3.87;;;16.80;67.20;;;;;;4968821;28;43398;-69
2023/12/22 08:47:33;;;;;;;4.80;3.40;;;16.80;67.20;;;;;;4966809;28;43443;-69
2023/12/22 08:50:03;;;;;;;4.10;3.43;;;16.80;67.10;;;;;;4962802;28;43526;-69
2023/12/22 08:52:33;;;;;;;4.50;3.73;;;16.80;66.90;;;;;;4965723;28;43512;-69
2023/12/22 08:55:01;;;;;;;5.00;3.60;;;16.90;66.60;;;;;;4963617;28;43462;-70
2023/12/22 08:57:31;;;;;;;4.70;3.50;;;17.00;66.40;;;;;;4971156;28;43389;-69
2023/12/22 08:59:59;;;;;;;3.90;3.50;;;17.00;66.40;;;;;;4966424;28;43602;-70
2023/12/22 09:02:27;;;;;;;3.50;3.20;;;17.00;66.50;;;;;;4964617;28;43523;-69
2023/12/22 09:04:55;;;;;;;4.00;3.13;;;16.90;66.50;;;;;;4965999;28;43419;-70
2023/12/22 09:07:24;;;;;;;4.17;3.47;;;16.90;66.40;;;;;;4962486;28;43394;-70
2023/12/22 09:09:52;;;;;;;4.10;3.23;;;16.90;66.60;;;;;;4964709;28;46018;-69
2023/12/22 09:12:20;;;;;;;3.33;3.13;;;16.90;66.70;;;;;;4959757;28;45092;-70
2023/12/22 09:14:50;;;;;;;3.80;3.40;;;16.90;66.80;;;;;;4969618;28;43390;-70
2023/12/22 09:17:19;;;;;;;4.60;3.50;;;16.90;67.00;;;;;;4968589;28;43563;-69
2023/12/22 09:19:47;;;;;;;5.23;3.77;;;16.80;66.90;;;;;;4967038;28;45460;-69
2023/12/22 09:22:15;;;;;;;5.50;3.23;;;16.80;66.80;;;;;;4971424;28;43386;-69
2023/12/22 09:24:43;;;;;;;4.43;3.50;;;16.80;66.90;;;;;;4952599;28;43460;-72
2023/12/22 09:27:11;;;;;;;5.33;3.63;;;16.80;67.10;;;;;;4944581;28;43941;-72
2023/12/22 09:29:39;;;;;;;3.73;3.40;;;16.80;67.10;;;;;;4944152;28;43812;-72
2023/12/22 09:32:10;;;;;;;4.03;3.40;;;16.80;67.20;;;;;;4948382;28;44025;-72
2023/12/22 09:34:40;;;;;;;3.50;3.20;;;16.80;67.20;;;;;;4942704;28;43390;-72
2023/12/22 09:37:08;;;;;;;3.47;3.17;;;16.70;67.00;;;;;;4941574;28;43451;-72
2023/12/22 09:39:37;;;;;;;4.60;3.40;;;16.80;67.00;;;;;;4943948;28;43612;-72
2023/12/22 09:42:06;;;;;;;3.87;3.33;;;16.90;66.80;;;;;;4945670;28;44746;-72
2023/12/22 09:44:34;;;;;;;3.77;3.40;;;16.90;66.40;;;;;;4944345;28;43365;-72
2023/12/22 09:47:04;;;;;;;3.83;3.20;;;17.00;66.50;;;;;;4938932;28;43858;-71
2023/12/22 09:49:34;;;;;;;4.13;3.60;;;16.90;67.30;;;;;;4942446;28;46168;-72
2023/12/22 09:52:03;;;;;;;4.00;3.60;;;16.90;66.70;;;;;;4947326;28;43541;-72
2023/12/22 09:54:31;;;;;;;4.00;3.17;;;16.90;66.70;;;;;;4936951;28;43429;-72
2023/12/22 09:57:00;;;;;;;4.40;3.30;;;16.90;66.70;;;;;;4943401;28;43555;-72
2023/12/22 09:59:45;;;;;;;3.73;3.43;;;16.90;66.90;;;;;;4945377;28;45753;-72
2023/12/22 10:02:14;;;;;;;4.03;3.03;;;16.90;67.00;;;;;;4943558;28;44970;-71
2023/12/22 10:04:46;;;;;;;3.33;3.03;;;16.80;66.90;;;;;;4942811;28;43579;-72
2023/12/22 10:07:14;;;;;;;4.13;3.10;;;16.80;67.00;;;;;;4939037;28;43369;-72
2023/12/22 10:09:43;;;;;;;3.10;2.80;;;16.80;67.00;;;;;;4943277;28;43621;-72
2023/12/22 10:12:11;;;;;;;3.23;2.90;;;16.80;66.90;;;;;;4947826;28;43468;-72
2023/12/22 10:14:39;;;;;;;3.37;3.07;;;16.80;67.10;;;;;;4941168;28;43481;-72
2023/12/22 10:17:08;;;;;;;3.07;2.87;;;16.80;67.20;;;;;;4938588;28;43527;-72
2023/12/22 10:23:44;;;;;;;3.50;3.20;;;16.80;67.20;;;;;;4939151;28;43411;-71
2023/12/22 10:26:12;;;;;;;3.23;3.00;;;16.80;67.10;;;;;;4945702;28;44118;-72
2023/12/22 10:28:41;;;;;;;4.33;2.80;;;16.80;67.00;;;;;;4946432;28;43501;-72
2023/12/22 10:31:10;;;;;;;3.37;3.07;;;16.90;66.80;;;;;;4939107;28;45757;-72
2023/12/22 10:33:38;;;;;;;3.70;3.30;;;17.00;66.50;;;;;;4950544;28;43544;-69
2023/12/22 10:36:07;;;;;;;3.37;3.03;;;17.00;66.60;;;;;;4966886;28;43566;-69
2023/12/22 10:38:35;;;;;;;3.27;2.73;;;17.00;66.70;;;;;;4971162;28;43492;-70
2023/12/22 10:41:05;;;;;;;4.80;3.20;;;16.90;66.70;;;;;;4971022;28;43888;-69
2023/12/22 10:43:38;;;;;;;3.67;3.37;;;16.90;66.60;;;;;;4966417;28;43410;-69
2023/12/22 10:46:07;;;;;;;2.90;2.60;;;16.90;66.80;;;;;;4964485;28;43999;-69
2023/12/22 10:48:35;;;;;;;3.00;2.80;;;16.90;66.90;;;;;;4969391;28;43311;-69
2023/12/22 10:51:04;;;;;;;2.80;2.60;;;16.90;67.00;;;;;;4969498;28;43857;-70
2023/12/22 10:53:32;;;;;;;2.70;2.60;;;16.90;67.00;;;;;;4962669;28;44806;-69
2023/12/22 10:56:00;;;;;;;3.30;3.00;;;16.80;67.10;;;;;;4966156;28;44195;-69
2023/12/22 10:58:30;;;;;;;3.67;2.93;;;16.80;66.90;;;;;;4965510;28;43412;-67
2023/12/22 11:00:58;;;;;;;2.63;2.43;;;16.80;67.00;;;;;;4969872;28;44239;-69
2023/12/22 11:03:27;;;;;;;3.70;2.80;;;16.80;67.10;;;;;;4967146;28;43445;-69
2023/12/22 11:05:55;;;;;;;2.80;2.60;;;16.80;67.20;;;;;;4964809;28;43528;-69
2023/12/22 11:08:23;;;;;;;2.80;2.60;;;16.80;67.20;;;;;;4966089;28;43578;-69
2023/12/22 11:10:53;;;;;;;3.40;2.73;;;16.80;67.10;;;;;;4967805;28;43893;-70
2023/12/22 11:13:21;;;;;;;2.50;2.40;;;16.80;67.00;;;;;;4970975;28;43473;-70
2023/12/22 11:15:50;;;;;;;3.00;2.80;;;16.80;66.80;;;;;;4961258;28;43597;-70
2023/12/22 11:18:18;;;;;;;2.50;2.30;;;16.80;66.90;;;;;;4964790;28;43397;-70
2023/12/22 11:20:47;;;;;;;2.70;2.43;;;16.80;67.10;;;;;;4970787;28;43862;-70
2023/12/22 11:23:15;;;;;;;2.50;2.30;;;16.80;67.10;;;;;;4964133;28;43503;-69
2023/12/22 11:25:43;;;;;;;2.73;2.50;;;16.80;67.10;;;;;;4970466;28;43442;-70
2023/12/22 11:28:16;;;;;;;2.77;2.47;;;16.80;67.20;;;;;;4965565;28;43425;-69
2023/12/22 11:30:45;;;;;;;3.57;2.30;;;16.80;67.10;;;;;;4962555;28;43689;-70
2023/12/22 11:33:15;;;;;;;3.70;2.50;;;16.80;66.90;;;;;;4955565;28;45250;-69
2023/12/22 11:35:47;;;;;;;2.63;2.43;;;16.90;66.70;;;;;;4967729;28;43400;-69
2023/12/22 11:38:15;;;;;;;2.40;2.20;;;17.00;66.40;;;;;;4960674;28;43404;-69
2023/12/22 11:40:43;;;;;;;2.67;2.47;;;17.10;66.20;;;;;;4960627;28;43609;-69
2023/12/22 11:43:11;;;;;;;2.60;2.40;;;17.10;66.30;;;;;;4968143;28;43456;-70
2023/12/22 11:45:39;;;;;;;2.60;2.40;;;17.00;66.30;;;;;;4945323;28;43404;-72
2023/12/22 11:48:11;;;;;;;2.63;2.43;;;17.00;66.30;;;;;;4939680;28;43614;-72
2023/12/22 11:50:41;;;;;;;2.20;2.10;;;17.00;66.40;;;;;;4944445;28;44285;-71
2023/12/22 11:53:21;;;;;;;2.83;2.20;;;17.00;66.70;;;;;;4941875;28;43466;-71
2023/12/22 11:56:00;;;;;;;2.20;2.10;;;17.00;66.70;;;;;;4929747;28;43496;-71
2023/12/22 11:58:34;;;;;;;2.00;1.90;;;16.90;66.80;;;;;;4937949;28;43472;-71
2023/12/22 12:01:03;;;;;;;3.23;2.23;;;16.90;66.90;;;;;;4937273;28;43857;-73
2023/12/22 12:03:32;;;;;;;2.30;2.20;;;16.80;66.70;;;;;;4934372;28;43918;-72
2023/12/22 12:06:18;;;;;;;2.03;1.90;;;16.80;66.90;;;;;;4936557;28;43555;-72
2023/12/22 12:08:48;;;;;;;2.37;2.20;;;16.80;67.00;;;;;;4941062;28;43507;-72
2023/12/22 12:11:16;;;;;;;1.90;1.80;;;16.80;67.00;;;;;;4942888;28;43885;-72
2023/12/22 12:13:45;;;;;;;2.07;1.97;;;16.80;67.10;;;;;;4943241;28;44720;-72
2023/12/22 12:16:13;;;;;;;2.30;2.10;;;16.80;67.20;;;;;;4945105;28;43459;-72
2023/12/22 12:18:42;;;;;;;2.13;2.00;;;16.80;67.10;;;;;;4936900;28;43400;-72
2023/12/22 12:21:10;;;;;;;2.20;2.10;;;16.80;66.90;;;;;;4942339;28;45721;-72
2023/12/22 12:23:39;;;;;;;1.90;1.80;;;16.90;66.70;;;;;;4944791;28;43911;-72
2023/12/22 12:26:07;;;;;;;2.00;1.90;;;17.00;66.50;;;;;;4939636;28;43450;-72
2023/12/22 12:28:36;;;;;;;2.20;2.10;;;17.00;66.50;;;;;;4941468;28;43880;-72
2023/12/22 12:31:06;;;;;;;2.00;1.90;;;17.00;66.70;;;;;;4940809;28;43738;-72
2023/12/22 12:33:34;;;;;;;1.70;1.70;;;16.90;66.60;;;;;;4938309;28;43460;-72
2023/12/22 12:36:04;;;;;;;1.90;1.80;;;16.90;66.70;;;;;;4940771;28;43963;-72
2023/12/22 12:38:44;;;;;;;1.87;1.77;;;17.00;66.70;;;;;;4939954;28;43462;-72
2023/12/22 12:41:12;;;;;;;1.80;1.70;;;16.90;66.80;;;;;;4938685;28;44799;-73
2023/12/22 12:43:42;;;;;;;1.83;1.73;;;16.90;66.90;;;;;;4939336;28;43423;-73
2023/12/22 12:46:10;;;;;;;2.00;1.90;;;16.90;67.00;;;;;;4936871;28;43489;-72
2023/12/22 12:48:39;;;;;;;1.80;1.70;;;16.90;67.10;;;;;;4941032;28;43954;-72
2023/12/22 12:51:07;;;;;;;1.90;1.80;;;16.90;67.00;;;;;;4945318;28;44086;-72
2023/12/22 12:53:38;;;;;;;1.80;1.70;;;16.90;67.60;;;;;;4948158;28;44839;-71
2023/12/22 12:56:07;;;;;;;1.60;1.60;;;16.90;67.10;;;;;;4967742;28;43566;-69
2023/12/22 12:58:39;;;;;;;1.50;1.50;;;16.90;67.10;;;;;;4970935;28;43468;-69
2023/12/22 13:01:11;;;;;;;1.80;1.70;;;16.90;67.20;;;;;;4970242;28;43856;-69
2023/12/22 13:03:54;;;;;;;1.60;1.60;;;16.80;67.20;;;;;;4967178;28;43412;-69